Outlet Price Busters

The New Hampshire Liquor and Wine Outlets always have some of America’s lowest prices on wines and spirits.  And now – our Outlet Price Busters are even lower!

Hurry and stock up and save now with our Outlet Price Busters. You’ll save more as we slash prices on top-selling items throughout our stores.

Item #CategoryNameSizeProofRegular PriceSale PriceSavingsSale Ends
18893 Wine Imported 19 Crimes Red 750mL - $12.99 $8.99 $4.00 10/02/16
44620 Wine American A To Z Chardonnay Ore 750mL - $16.99 $14.99 $2.00 10/02/16
41212 Wine American A To Z Pinot Gris Ore 750mL - $16.99 $14.99 $2.00 10/02/16
41213 Wine American A To Z Pinot Noir Ore 750mL - $19.99 $17.99 $2.00 10/02/16
8068 Vodka Imported Absolut 80 Proof 1.75L 80 $31.99 $25.99 $6.00 10/02/16
12994 Wine American Acrobat Pinot Gris Oregon 750mL - $14.99 $12.99 $2.00 10/02/16
13430 Wine Imported Agua De Piedra Malbec Gran Seleccion 750mL - $13.99 $10.99 $3.00 10/02/16
16393 Wine Imported Alamos Red Mendoza 750mL - $11.99 $9.99 $2.00 10/02/16
35578 Wine Imported Alamos Ridge Cabernet Sauvignon Mendoza Argen 750mL - $11.99 $9.99 $2.00 10/02/16
33148 Wine Imported Alamos Ridge Chardonnay Mendoza Argentna 750mL - $11.99 $9.99 $2.00 10/02/16
33149 Wine Imported Alamos Ridge Malbec Mendoza Argentina 750mL - $11.99 $9.99 $2.00 10/02/16
10298 Wine Imported Alamos Torrontes 750mL - $11.99 $9.99 $2.00 10/02/16
25036 Wine Imported Albola Pinot Grigio 750mL - $12.99 - - -
41072 Wine American Angeline Pinot Noir Reserve 750mL - $16.99 $14.99 $2.00 10/02/16
6727 Wine Imported Antinori Toscana Rd 750mL - $21.99 $18.49 $3.50 10/02/16
23273 Wine American Apothic Crush 750mL - $12.99 $8.99 $4.00 10/02/16
20357 Wine American Apothic Dark 750mL - $12.99 $8.99 $4.00 10/02/16
14006 Wine American Apothic Red Winemakers Blend 750mL - $12.99 $8.99 $4.00 10/02/16
16806 Wine American Apothic Winemakers White 750mL - $12.99 $8.99 $4.00 10/02/16
32545 Wine American Artesa Chardonnay Carneros 750mL - $19.99 $17.99 $2.00 10/02/16
32546 Wine American Artesa Pinot Noir Carneros 750mL - $24.99 $22.99 $2.00 10/02/16
4227 Rum Imported Bacardi Superior Light Rum Traveler 1.75L 80 $19.99 $17.99 $2.00 10/02/16
8082 Cordials Liqueurs & Specialtie Baileys Irish Cream 1.75L 34 $38.99 $33.99 $5.00 10/02/16
18142 Wine Imported Banfi Brunello Di Montalcino 750mL - $63.99 $59.99 $4.00 10/02/16
8678 Wine Imported Banfi Chianti Classic Rsv 750mL - $18.99 $15.99 $3.00 10/02/16
18347 Wine Imported Banfi Pinot Grigio San Angelo 750mL - $18.99 $16.99 $2.00 10/02/16
18027 Wine Imported Banfi Rosa Regale 750mL - $19.99 $16.49 $3.50 10/02/16
31487 Wine American Barefoot Bubbly Brut Cve 750mL - $12.99 $9.99 $3.00 10/02/16
13163 Wine American Barefoot Bubbly Moscato Spumante 750mL - $12.99 $9.99 $3.00 10/02/16
16289 Wine American Barefoot Bubbly Pink Moscato 750mL - $12.99 $9.99 $3.00 10/02/16
3423 Gin Imported Beefeater 1.75L 94 $31.99 $26.99 $5.00 10/02/16
6974 Wine American Benziger Cabernet Sauvignon Sonoma 750mL - $18.99 $15.99 $3.00 10/02/16
6869 Wine American Benziger Chardonnay 750mL - $14.99 $11.99 $3.00 10/02/16
33037 Wine American Beringer Founders Estate Cabernet Sauvignon 1.5L - $21.99 $15.99 $6.00 10/02/16
33038 Wine American Beringer Founders Estate Chardonnay 1.5L - $21.99 $15.99 $6.00 10/02/16
33039 Wine American Beringer Founders Estate Merlot 1.5L - $21.99 $15.99 $6.00 10/02/16
2114 Whiskey Imported Black Velvet Canadian Whiskey 1.75L 80 $15.99 $11.99 $4.00 10/02/16
26732 Wine American Bonterra Cabernet Sauvignon Organic N Coast 750mL - $16.99 $14.99 $2.00 10/02/16
24419 Wine American Bonterra Chardonnay Mendocino Organic 750mL - $14.99 $12.99 $2.00 10/02/16
45769 Wine American Bonterra Sauvignon Blanc Organic 750mL - $14.99 $12.99 $2.00 10/02/16
1384 Whiskey American Bulleit 95 Rye 750mL 90 $28.99 $24.99 $4.00 10/02/16
8178 Whiskey American Bulleit Bourbon Frontier Whiskey 750mL 90 $28.99 $24.99 $4.00 10/02/16
15094 Wine American Butter Chardonnay 750mL - $17.99 $15.99 $2.00 10/02/16
17504 Wine American Butternut Chardonnay 750mL - $16.99 $14.99 $2.00 10/02/16
10443 Wine American C Smith Riesling Kung Fu Girl Columbia 750mL - $13.99 $11.99 $2.00 10/02/16
18742 Wine American Ca'momi Cabernet Sauvignon Napa Valley 750mL - $24.99 $22.99 $2.00 10/02/16
18744 Wine American Ca'momi Chardonnay Napa Valley 750mL - $19.99 $17.99 $2.00 10/02/16
40054 Wine Imported Campo Viejo Tempranillo Rsv 750mL - $14.99 $11.49 $3.50 10/02/16
2120 Whiskey Imported Canadian Club 1858 1.75L 80 $19.99 $17.99 $2.00 10/02/16
4260 Rum American Captain Morgan Original Barrel Bottle 1.75L 70 $24.49 $21.99 $2.50 10/02/16
4261 Rum American Captain Morgan Spiced Rum 1.75L 70 $26.99 $22.99 $4.00 10/02/16
19848 Wine American Carnivor Cabernet Sauvignon 750mL - $12.99 $8.99 $4.00 10/02/16
32831 Wine Imported Carpineto Dogajolo Tuscan Red 750mL - $14.99 $12.99 $2.00 10/02/16
12666 Wine Imported Carpineto Dogajolo Tuscan White 750mL - $14.99 $12.99 $2.00 10/02/16
11214 Wine American Caymus Cabernet Sauvignon Napa Valley 750mL - $79.99 $69.99 $10.00 10/02/16
24829 Wine Imported Cecchi Chianti Classico 750mL - $14.99 $12.99 $2.00 10/02/16
18013 Wine Imported Cecchi Sangiovese 750mL - $10.99 $8.99 $2.00 10/02/16
43225 Wine Imported Ch Beauchene Chtnf Du Pape Grand Rsv 750mL - $35.99 $32.99 $3.00 10/02/16
43223 Wine Imported Ch Beauchene Cotes Du Rhone Rsv 750mL - $13.99 $10.99 $3.00 10/02/16
14184 Wine Imported Ch Michel De Vert Lussac Saint Emilion 750mL - $16.99 $13.99 $3.00 10/02/16
14393 Wine Imported Ch Montaud Cotes De Provence Rose 750mL - $14.99 $12.99 $2.00 10/02/16
43590 Wine American Ch Ste Michelle Cabernet Sauvignon Indian Wells 750mL - $17.99 $14.95 $3.04 10/02/16
2645 Whiskey Imported Chivas Regal 750mL 80 $36.99 $29.99 $7.00 10/02/16
44228 Wine Imported Clean Slate Riesling Mosel 750mL - $13.99 $9.99 $4.00 10/02/16
19748 Wine American Clos Du Bois Chardonnay 1.5L - $21.99 $15.99 $6.00 10/02/16
45496 Wine Imported Conquista Malbec Mendoza 750mL - $11.99 $9.99 $2.00 10/02/16
8680 Whiskey Imported Crown Royal 1.75L 80 $46.99 $39.99 $7.00 10/02/16
2432 Whiskey Imported Crown Royal 750mL 80 $26.99 $24.99 $2.00 10/02/16
14706 Wine Imported Cupcake Prosecco 750mL - $13.99 $10.99 $3.00 10/02/16
32479 Wine Imported Danzante Pinot Grigio Delle Venezie 750mL - $12.99 $10.99 $2.00 10/02/16
2663 Whiskey Imported Dewars White Label 1.75L 80 $39.99 $29.99 $10.00 10/02/16
46447 Wine Imported Don Miguel Gascon Malbec Mendoza 750mL - $15.99 $10.59 $5.40 10/02/16
25832 Wine American Dry Creek Fume Blanc Sonoma County 750mL - $13.99 $10.99 $3.00 10/02/16
43434 Wine American Earthquake Cabernet Sauvignon 750mL - $28.99 $23.47 $5.52 10/02/16
41159 Wine American Earthquake Zinfandel 750mL - $28.99 $23.47 $5.52 10/02/16
32108 Wine American Erath Pinot Noir Oregon 750mL - $18.99 $15.99 $3.00 10/02/16
6599 Wine American Estancia Cabernet Sauvignon Paso Robles 750mL - $15.99 $13.99 $2.00 10/02/16
12213 Wine Imported Evodia Garnacha Old Vine 750mL - $11.99 $9.99 $2.00 10/02/16
31915 Wine American F Coppola Chardonnay Diamond Sries 750mL - $15.99 $11.99 $4.00 10/02/16
27854 Wine American F Coppola Claret Black Label 750mL - $19.99 $15.99 $4.00 10/02/16
10058 Wine American F Coppola Diamond Ivory Label Cabernet Sauvignon 750mL - $17.99 $14.99 $3.00 10/02/16
26948 Wine American Ferrari-carano Chardonnay 750mL - $24.99 $20.99 $4.00 10/02/16
6385 Wine American Fetzer Sundial Chardonnay California 1.5L - $15.99 $13.99 $2.00 10/02/16
22801 Wine American Fetzer Valley Oaks Cabernet Sauvignon 1.5L - $15.99 $13.99 $2.00 10/02/16
42421 Wine American Firesteed Pinot Gris Ore 750mL - $15.99 $13.99 $2.00 10/02/16
42422 Wine American Firesteed Pinot Noir Oregon 750mL - $19.99 $11.49 $8.50 10/02/16
41034 Wine American Folie A Deux Menage A Trois Red 750mL - $12.99 $10.99 $2.00 10/02/16
16794 Wine American Freakshow Cabernet Sauvignon 750mL - $21.99 $18.76 $3.23 10/02/16
34428 Wine American Frei Bros Chardonnay Rsv Russian River 750mL - $21.99 $16.99 $5.00 10/02/16
45322 Wine Imported Garnacha De Fuego 750mL - $10.99 $6.99 $4.00 10/02/16
46379 Wine American Ghost Pines Cabernet Sauvignon L Martini 750mL - $22.99 $15.99 $7.00 10/02/16
4225 Rum Imported Goslings Black Seal Rum 80 Proof 1.75L 80 $30.99 $26.99 $4.00 10/02/16
25846 Wine American Groth Sauvignon Blanc Napa Valley 750mL - $21.99 $19.99 $2.00 10/02/16
10579 Wine Imported High Note Malbec Mendoza 750mL - $13.99 $10.99 $3.00 10/02/16
33731 Wine Imported Hopler Gruner Veltliner Austria 750mL - $14.99 $12.99 $2.00 10/02/16
3982 Tequila Hornitos Reposado Tequila 750mL 80 $24.99 $19.49 $5.50 10/02/16
38133 Wine Imported Il Bastardo Sangiovese Toscana 750mL - $10.99 $8.99 $2.00 10/02/16
6692 Wine Imported Jaboulet Cotes Du Rhone Parallele 45 Red 750mL - $14.99 $12.99 $2.00 10/02/16
1233 Whiskey American Jack Daniels No 7 Black 1.75L 80 $42.99 $39.99 $3.00 10/02/16
5440 Cordials Liqueurs & Specialtie Jagermeister Liqueur 1.75L 70 $39.99 $30.99 $9.00 10/02/16
2585 Whiskey Imported Jameson Irish Whiskey 750mL 80 $27.99 $23.99 $4.00 10/02/16
2589 Whiskey Imported Jameson Irish Whiskey 1.75L 80 $47.99 $39.99 $8.00 10/02/16
1376 Whiskey American Jim Beam 1.75L 80 $28.99 $24.99 $4.00 10/02/16
12771 Wine American Joel Gott Cabernet Sauvignon 815 750mL - $16.99 $14.99 $2.00 10/02/16
2757 Whiskey Imported Johnnie Walker Red Label 1.75L 80 $39.99 $29.99 $10.00 10/02/16
8159 Tequila Jose Cuervo Especial 1.75L 80 $30.99 $25.99 $5.00 10/02/16
43872 Wine American Joseph Carr Cabernet Sauvignon Napa 750mL - $28.99 $26.99 $2.00 10/02/16
11219 Wine American Josh Cellars Cabernet Sauvignon 750mL - $18.99 $16.49 $2.50 10/02/16
13665 Wine American Josh Cellars Chardonnay 750mL - $16.99 $14.99 $2.00 10/02/16
19948 Wine American Josh Cellars Pinot Noir 750mL - $19.99 $17.99 $2.00 10/02/16
47014 Wine Imported Juan Gil Jumilla Red 750mL - $15.99 $13.99 $2.00 10/02/16
5364 Cordials Liqueurs & Specialtie Kahlua 1.75L 40 $36.99 $29.99 $7.00 10/02/16
15105 Wine American Kendall Jackson Avant Chardonnay 750mL - $13.99 $11.99 $2.00 10/02/16
6570 Wine American Kendall Jackson Chardonnay Vintners Rsv 750mL - $13.99 $11.99 $2.00 10/02/16
6824 Wine American Kendall Jackson Pinot Noir Vintners Rsv 750mL - $16.99 $14.99 $2.00 10/02/16
3545 Vodka Imported Ketel One Vodka 1.75L 80 $38.99 $34.99 $4.00 10/02/16
10266 Wine American Klinker Brick Zinfandel Old Vine 750mL - $18.99 $16.99 $2.00 10/02/16
38899 Wine American L Martini Cabernet Sauvignon Sonoma 750mL - $16.99 $14.99 $2.00 10/02/16
42881 Wine Imported La Bastarda Pinot Grigio Sicily 750mL - $10.99 $8.99 $2.00 10/02/16
41940 Wine American Lange Pinot Noir Willamette 750mL - $25.99 $23.99 $2.00 10/02/16
16610 Wine American Leese-fitch Cabernet Sauvignon 750mL - $12.99 $10.99 $2.00 10/02/16
16314 Wine American Line 39 Chardonnay 750mL - $11.99 $8.99 $3.00 10/02/16
19645 Wine American Line 39 Pinot Noir 750mL - $11.99 $8.99 $3.00 10/02/16
27042 Wine Imported Luna Di Luna Chard/pnt Grigio Ca'montini 750mL - $11.99 $9.99 $2.00 10/02/16
44511 Wine American Macmurray Ranch Pinot Noir Central Coast 750mL - $20.99 $16.99 $4.00 10/02/16
5734 Rum Imported Malibu Rum 1.75L 42 $25.99 $21.99 $4.00 10/02/16
40193 Wine American Mark West Chardonnay Sonoma County 750mL - $12.99 $9.99 $3.00 10/02/16
38546 Wine American Mark West Pinot Noir Sonoma 750mL - $12.99 $9.99 $3.00 10/02/16
7302 Wine Imported Marques De Caceres Red Rioja 750mL - $14.99 $11.75 $3.24 10/02/16
24634 Wine Imported Marques De Caceres Red Rioja Reserva 750mL - $19.99 $16.99 $3.00 10/02/16
26236 Wine Imported Marques De Caceres Rose Rioja 750mL - $10.99 $8.22 $2.77 10/02/16
45822 Wine Imported Masciarelli Montepulciano D'abruzzo 750mL - $12.99 $9.95 $3.04 10/02/16
21329 Wine Imported Masi Campofiorin 750mL - $19.99 $17.99 $2.00 10/02/16
21985 Wine American Menage A Trois Midnight 750mL - $14.99 $11.99 $3.00 10/02/16
41537 Wine American Mer Soleil Chardonnay Central Coast 750mL - $37.99 $29.99 $8.00 10/02/16
13638 Wine American Merlot Velvet Devil C Smith 750mL - $13.99 $11.99 $2.00 10/02/16
36378 Wine Imported Mezzacorona Pinot Grigio 1.5L - $14.99 $12.99 $2.00 10/02/16
10626 Wine Imported Mezzacorona Pinot Noir 1.5L - $14.99 $12.99 $2.00 10/02/16
40425 Wine Imported Mionetto Prosecco Brut 750mL - $16.99 $13.99 $3.00 10/02/16
31542 Wine American Morgan Winery Twelve Clones Pinot Noir 750mL - $31.99 $28.99 $3.00 10/02/16
2164 Gin American New Amsterdam Gin 1.75L 80 $22.99 $16.99 $6.00 10/02/16
26091 Wine American Pacific Rim Riesling 750mL - $11.99 $8.99 $3.00 10/02/16
46830 Wine American Pacific Rim Sweet Riesling 750mL - $11.99 $8.99 $3.00 10/02/16
41321 Wine American Phantom Bogle California Red 750mL - $21.99 $19.99 $2.00 10/02/16
3512 Vodka Imported Pinnacle Vodka 1.75L 80 $20.99 $15.99 $5.00 10/02/16
3522 Vodka American Platinum 7x Distilled Vodka 1.75L 80 $15.99 $12.99 $3.00 10/02/16
8345 Wine American R M Woodbridge Cabernet Sauvignon California 750mL - $7.99 $4.95 $3.04 10/02/16
6420 Wine American R M Woodbridge Chardonnay California 750mL - $7.99 $4.95 $3.04 10/02/16
28579 Wine American R M Woodbridge Merlot California 750mL - $7.99 $4.95 $3.04 10/02/16
35471 Wine American R M Woodbridge Pinot Grigio California 750mL - $7.99 $4.95 $3.04 10/02/16
43808 Wine American R M Woodbridge Pinot Noir California 750mL - $7.99 $4.95 $3.04 10/02/16
8359 Wine American R M Woodbridge Sauvignon Blanc California 750mL - $7.99 $4.95 $3.04 10/02/16
38850 Wine American Ravenswood Cabernet Sauvignon Vntrs Blend California 750mL - $10.99 $6.79 $4.20 10/02/16
26456 Wine American Ravenswood Chardonnay Vintners Blend 750mL - $10.99 $6.79 $4.20 10/02/16
26817 Wine American Ravenswood Merlot Vintners Blend 750mL - $10.99 $6.79 $4.20 10/02/16
26463 Wine American Ravenswood Zinfandel Vintners Blend 750mL - $10.99 $6.79 $4.20 10/02/16
41143 Wine American Red Diamond Cabernet Sauvignon Wash 750mL - $11.99 $7.95 $4.04 10/02/16
39750 Wine American Red Diamond Merlot Wash 750mL - $11.99 $7.95 $4.04 10/02/16
38772 Wine American Rob Stuart Pinot Noir Big Fire Oregon 750mL - $19.99 $17.99 $2.00 10/02/16
32826 Wine American Rombauer Chardonnay Carneros 750mL - $37.99 $34.99 $3.00 10/02/16
33032 Wine American Rombauer Zinfandel 750mL - $32.99 $29.99 $3.00 10/02/16
42948 Wine Imported Root 1 Cabernet Sauvignon 750mL - $13.99 $11.99 $2.00 10/02/16
24188 Wine American Saint Francis Cabernet Sauvignon Sonoma 750mL - $18.99 $16.99 $2.00 10/02/16
6864 Wine American Saint Francis Chardonnay 750mL - $13.99 $10.99 $3.00 10/02/16
37312 Wine American Salmon Run Pinot Noir Ny 750mL - $17.99 $13.79 $4.20 10/02/16
6319 Wine Imported Santa Cristina Toscana Antinori 750mL - $13.99 $10.95 $3.04 10/02/16
6967 Wine Imported Santa Margherita Pinot Grigio 750mL - $22.99 $21.11 $1.88 10/02/16
3389 Gin American Seagrams Extra Dry Gin 1.75L 80 $19.99 $16.99 $3.00 10/02/16
3329 Vodka American Seagrams Extra Smooth Vodka 1.75L 80 $18.99 $13.99 $5.00 10/02/16
43362 Wine American Silver Oak Cabernet Sauvignon Napa 750mL - $114.99 $109.99 $5.00 10/02/16
3876 Vodka American Smirnoff 80 Proof 1.75L 80 $22.99 $18.99 $4.00 10/02/16
3102 Vodka American Smirnoff Traveler 1.75L 80 $20.99 $17.99 $3.00 10/02/16
34903 Wine Imported Smoking Loon Cabernet Sauvignon 750mL - $12.99 $7.99 $5.00 10/02/16
34904 Wine American Smoking Loon Chardonnay 750mL - $12.99 $7.99 $5.00 10/02/16
21353 Wine Imported Smoking Loon Malbec El Carancho 750mL - $12.99 $7.99 $5.00 10/02/16
34905 Wine Imported Smoking Loon Merlot 750mL - $12.99 $7.99 $5.00 10/02/16
44494 Wine American Smoking Loon Pinot Grigio California 750mL - $12.99 $7.99 $5.00 10/02/16
38457 Wine Imported Smoking Loon Pinot Noir 750mL - $12.99 $7.99 $5.00 10/02/16
16325 Wine American Smoking Loon Red Loonatic Valle Central 750mL - $12.99 $9.99 $3.00 10/02/16
42122 Wine American Smoking Loon Sauvignon Blanc California 750mL - $12.99 $9.99 $3.00 10/02/16
17707 Wine American Smoking Loon Steelbird Unoaked Chardonna 750mL - $12.99 $7.99 $5.00 10/02/16
34906 Wine Imported Smoking Loon Syrah 750mL - $12.99 $9.99 $3.00 10/02/16
34907 Wine American Smoking Loon Viognier California 750mL - $12.99 $9.99 $3.00 10/02/16
45276 Wine American Smoking Loon Zinfandel California 750mL - $12.99 $9.99 $3.00 10/02/16
11957 Wine American Souverain Cabernet Sauvignon North Coast 750mL - $11.99 $9.99 $2.00 10/02/16
6593 Wine American Souverain Chardonnay North Coast 750mL - $11.99 $9.99 $2.00 10/02/16
46021 Wine American Spellbound Cabernet Sauvignon California 750mL - $15.99 $10.99 $5.00 10/02/16
46023 Wine American Spellbound Petite Sirah California 750mL - $15.99 $10.99 $5.00 10/02/16
10727 Wine Imported Starborough Sauvignon Blanc Marlborough 750mL - $12.99 $9.99 $3.00 10/02/16
8112 Vodka Imported Stolichnaya 1.75L 80 $29.99 $25.99 $4.00 10/02/16
3913 Vodka Imported Svedka Vodka 1.75L 80 $22.99 $17.49 $5.50 10/02/16
3489 Gin Imported Tanqueray 1.75L 95 $34.99 $27.99 $7.00 10/02/16
16261 Wine American The Dreaming Tree Chardonnay Cc 750mL - $14.99 - - -
3405 Vodka American Tito's Handmade Vodka 1.75L 80 $32.99 $29.99 $3.00 10/02/16
3040 Vodka American Tito's Vodka Liter 80 $24.99 $23.99 $1.00 10/02/16
37904 Wine Imported Trapiche Malbec Broquel Mendoza 750mL - $14.99 $11.99 $3.00 10/02/16
26399 Wine Imported Trapiche Malbec Mendoza Oak Cask 750mL - $10.99 $7.99 $3.00 10/02/16
34133 Wine American Turning Leaf Cabernet Sauvignon Rsv California 1.5L - $12.99 $10.99 $2.00 10/02/16
34134 Wine American Turning Leaf Chardonnay Rsv California 1.5L - $12.99 $10.99 $2.00 10/02/16
12368 Wine Imported Vina Zaco Tempranillo Rioja 750mL - $13.99 $11.99 $2.00 10/02/16
18642 Wine Imported Yellow Tail Pink Moscato 1.5L - $14.99 $10.53 $4.46 10/02/16
11970 Wine Imported Zaccagnini Montepulciano D'abruzzo Rsv 750mL - $18.99 $16.99 $2.00 10/02/16

Sign up & Save!

For exclusive savings on your favorite wines and spirits, sign up for Email Extras today.